sensor_id;sensor_type;location;lat;lon;timestamp;P1;durP1;ratioP1;P2;durP2;ratioP2
23802;SDS011;12082;51.786;6.018;2022-10-31T00:01:37;20.07;;;18.33;;
23802;SDS011;12082;51.786;6.018;2022-10-31T00:04:04;21.07;;;19.07;;
23802;SDS011;12082;51.786;6.018;2022-10-31T00:06:30;19.57;;;17.97;;
23802;SDS011;12082;51.786;6.018;2022-10-31T00:08:57;19.47;;;17.97;;
23802;SDS011;12082;51.786;6.018;2022-10-31T00:11:24;20.13;;;18.43;;
23802;SDS011;12082;51.786;6.018;2022-10-31T00:13:50;19.50;;;17.73;;
23802;SDS011;12082;51.786;6.018;2022-10-31T00:16:16;20.43;;;18.57;;
23802;SDS011;12082;51.786;6.018;2022-10-31T00:18:43;21.87;;;19.67;;
23802;SDS011;12082;51.786;6.018;2022-10-31T00:21:09;20.83;;;18.77;;
23802;SDS011;12082;51.786;6.018;2022-10-31T00:23:35;21.93;;;19.93;;
23802;SDS011;12082;51.786;6.018;2022-10-31T00:26:01;21.43;;;19.50;;
23802;SDS011;12082;51.786;6.018;2022-10-31T00:28:27;22.40;;;20.37;;
23802;SDS011;12082;51.786;6.018;2022-10-31T00:30:57;23.87;;;20.17;;
23802;SDS011;12082;51.786;6.018;2022-10-31T00:33:23;22.30;;;20.07;;
23802;SDS011;12082;51.786;6.018;2022-10-31T00:35:49;21.27;;;19.30;;
23802;SDS011;12082;51.786;6.018;2022-10-31T00:38:15;20.40;;;18.70;;
23802;SDS011;12082;51.786;6.018;2022-10-31T00:40:41;21.57;;;19.63;;
23802;SDS011;12082;51.786;6.018;2022-10-31T00:43:07;21.80;;;19.80;;
23802;SDS011;12082;51.786;6.018;2022-10-31T00:45:33;21.90;;;20.03;;
23802;SDS011;12082;51.786;6.018;2022-10-31T00:47:59;22.23;;;20.27;;
23802;SDS011;12082;51.786;6.018;2022-10-31T00:50:25;21.80;;;20.10;;
23802;SDS011;12082;51.786;6.018;2022-10-31T00:52:51;22.23;;;20.37;;
23802;SDS011;12082;51.786;6.018;2022-10-31T00:55:17;22.17;;;19.83;;
23802;SDS011;12082;51.786;6.018;2022-10-31T00:57:45;22.70;;;20.67;;
23802;SDS011;12082;51.786;6.018;2022-10-31T01:00:11;22.00;;;20.20;;
23802;SDS011;12082;51.786;6.018;2022-10-31T01:02:37;22.17;;;20.17;;
23802;SDS011;12082;51.786;6.018;2022-10-31T01:05:03;22.63;;;20.63;;
23802;SDS011;12082;51.786;6.018;2022-10-31T01:07:29;23.00;;;20.70;;
23802;SDS011;12082;51.786;6.018;2022-10-31T01:09:55;23.47;;;21.23;;
23802;SDS011;12082;51.786;6.018;2022-10-31T01:12:21;22.43;;;20.43;;
23802;SDS011;12082;51.786;6.018;2022-10-31T01:14:47;24.47;;;21.13;;
23802;SDS011;12082;51.786;6.018;2022-10-31T01:17:13;23.90;;;21.47;;
23802;SDS011;12082;51.786;6.018;2022-10-31T01:19:39;22.33;;;20.07;;
23802;SDS011;12082;51.786;6.018;2022-10-31T01:22:05;21.33;;;19.43;;
23802;SDS011;12082;51.786;6.018;2022-10-31T01:24:31;21.47;;;19.47;;
23802;SDS011;12082;51.786;6.018;2022-10-31T01:26:57;20.97;;;19.00;;
23802;SDS011;12082;51.786;6.018;2022-10-31T01:29:23;22.80;;;20.80;;
23802;SDS011;12082;51.786;6.018;2022-10-31T01:31:49;25.17;;;22.57;;
23802;SDS011;12082;51.786;6.018;2022-10-31T01:34:16;23.70;;;21.80;;
23802;SDS011;12082;51.786;6.018;2022-10-31T01:36:43;24.40;;;21.90;;
23802;SDS011;12082;51.786;6.018;2022-10-31T01:39:13;26.43;;;24.00;;
23802;SDS011;12082;51.786;6.018;2022-10-31T01:41:44;27.23;;;24.60;;
23802;SDS011;12082;51.786;6.018;2022-10-31T01:46:41;27.70;;;24.90;;
23802;SDS011;12082;51.786;6.018;2022-10-31T01:49:09;27.80;;;25.13;;
23802;SDS011;12082;51.786;6.018;2022-10-31T01:51:38;28.87;;;26.00;;
23802;SDS011;12082;51.786;6.018;2022-10-31T01:54:06;27.13;;;24.43;;
23802;SDS011;12082;51.786;6.018;2022-10-31T01:56:33;26.97;;;24.17;;
23802;SDS011;12082;51.786;6.018;2022-10-31T01:59:00;28.43;;;25.03;;
23802;SDS011;12082;51.786;6.018;2022-10-31T02:01:27;25.90;;;23.20;;
23802;SDS011;12082;51.786;6.018;2022-10-31T02:03:53;27.90;;;25.57;;
23802;SDS011;12082;51.786;6.018;2022-10-31T02:06:22;28.30;;;24.70;;
23802;SDS011;12082;51.786;6.018;2022-10-31T02:08:51;28.13;;;25.50;;
23802;SDS011;12082;51.786;6.018;2022-10-31T02:11:17;29.47;;;26.33;;
23802;SDS011;12082;51.786;6.018;2022-10-31T02:13:43;30.63;;;27.50;;
23802;SDS011;12082;51.786;6.018;2022-10-31T02:16:09;30.57;;;27.40;;
23802;SDS011;12082;51.786;6.018;2022-10-31T02:18:35;30.43;;;27.43;;
23802;SDS011;12082;51.786;6.018;2022-10-31T02:21:07;32.83;;;29.33;;
23802;SDS011;12082;51.786;6.018;2022-10-31T02:26:29;33.30;;;29.73;;
23802;SDS011;12082;51.786;6.018;2022-10-31T02:29:05;33.23;;;29.73;;
23802;SDS011;12082;51.786;6.018;2022-10-31T02:31:50;35.37;;;28.03;;
23802;SDS011;12082;51.786;6.018;2022-10-31T02:36:52;31.70;;;28.30;;
23802;SDS011;12082;51.786;6.018;2022-10-31T02:49:23;24.10;;;21.33;;
23802;SDS011;12082;51.786;6.018;2022-10-31T02:51:50;29.00;;;23.97;;
23802;SDS011;12082;51.786;6.018;2022-10-31T02:54:25;26.07;;;23.07;;
23802;SDS011;12082;51.786;6.018;2022-10-31T02:56:54;27.57;;;24.90;;
23802;SDS011;12082;51.786;6.018;2022-10-31T02:59:20;29.47;;;26.50;;
23802;SDS011;12082;51.786;6.018;2022-10-31T03:02:00;32.63;;;29.07;;
23802;SDS011;12082;51.786;6.018;2022-10-31T03:04:33;35.63;;;29.23;;
23802;SDS011;12082;51.786;6.018;2022-10-31T03:12:11;39.90;;;34.23;;
23802;SDS011;12082;51.786;6.018;2022-10-31T03:14:45;39.77;;;34.60;;
23802;SDS011;12082;51.786;6.018;2022-10-31T03:17:20;41.40;;;31.57;;
23802;SDS011;12082;51.786;6.018;2022-10-31T03:19:47;39.77;;;32.67;;
23802;SDS011;12082;51.786;6.018;2022-10-31T03:22:16;40.83;;;32.03;;
23802;SDS011;12082;51.786;6.018;2022-10-31T03:24:43;37.53;;;30.27;;
23802;SDS011;12082;51.786;6.018;2022-10-31T03:27:10;39.00;;;30.40;;
23802;SDS011;12082;51.786;6.018;2022-10-31T03:29:37;40.47;;;30.43;;
23802;SDS011;12082;51.786;6.018;2022-10-31T03:32:08;40.10;;;30.87;;
23802;SDS011;12082;51.786;6.018;2022-10-31T03:34:36;42.97;;;30.40;;
23802;SDS011;12082;51.786;6.018;2022-10-31T03:37:03;38.87;;;29.93;;
23802;SDS011;12082;51.786;6.018;2022-10-31T03:39:30;42.77;;;30.13;;
23802;SDS011;12082;51.786;6.018;2022-10-31T03:41:58;35.13;;;27.73;;
23802;SDS011;12082;51.786;6.018;2022-10-31T03:44:26;38.13;;;28.60;;
23802;SDS011;12082;51.786;6.018;2022-10-31T03:46:52;33.13;;;26.93;;
23802;SDS011;12082;51.786;6.018;2022-10-31T03:49:18;27.27;;;21.90;;
23802;SDS011;12082;51.786;6.018;2022-10-31T03:56:56;19.93;;;18.23;;
23802;SDS011;12082;51.786;6.018;2022-10-31T03:59:28;20.03;;;18.53;;
23802;SDS011;12082;51.786;6.018;2022-10-31T04:01:57;21.80;;;20.03;;
23802;SDS011;12082;51.786;6.018;2022-10-31T04:04:25;20.93;;;19.33;;
23802;SDS011;12082;51.786;6.018;2022-10-31T04:06:51;20.60;;;19.10;;
23802;SDS011;12082;51.786;6.018;2022-10-31T04:09:18;19.87;;;18.30;;
23802;SDS011;12082;51.786;6.018;2022-10-31T04:11:46;21.33;;;19.50;;
23802;SDS011;12082;51.786;6.018;2022-10-31T04:14:14;20.63;;;19.13;;
23802;SDS011;12082;51.786;6.018;2022-10-31T04:16:41;20.97;;;19.37;;
23802;SDS011;12082;51.786;6.018;2022-10-31T04:19:08;21.67;;;20.10;;
23802;SDS011;12082;51.786;6.018;2022-10-31T04:21:34;21.47;;;19.97;;
23802;SDS011;12082;51.786;6.018;2022-10-31T04:24:00;21.40;;;20.00;;
23802;SDS011;12082;51.786;6.018;2022-10-31T04:26:26;22.43;;;21.03;;
23802;SDS011;12082;51.786;6.018;2022-10-31T04:28:52;22.87;;;21.30;;
23802;SDS011;12082;51.786;6.018;2022-10-31T04:31:18;21.93;;;20.50;;
23802;SDS011;12082;51.786;6.018;2022-10-31T04:33:44;23.53;;;21.53;;
23802;SDS011;12082;51.786;6.018;2022-10-31T04:36:10;26.47;;;24.07;;
23802;SDS011;12082;51.786;6.018;2022-10-31T04:38:36;24.90;;;22.90;;
23802;SDS011;12082;51.786;6.018;2022-10-31T04:41:02;25.17;;;23.30;;
23802;SDS011;12082;51.786;6.018;2022-10-31T04:43:28;24.40;;;22.60;;
23802;SDS011;12082;51.786;6.018;2022-10-31T04:45:54;25.43;;;23.63;;
23802;SDS011;12082;51.786;6.018;2022-10-31T04:48:20;24.00;;;22.23;;
23802;SDS011;12082;51.786;6.018;2022-10-31T04:50:46;26.63;;;24.47;;
23802;SDS011;12082;51.786;6.018;2022-10-31T04:53:12;26.67;;;24.47;;
23802;SDS011;12082;51.786;6.018;2022-10-31T04:55:37;27.87;;;25.33;;
23802;SDS011;12082;51.786;6.018;2022-10-31T04:58:03;31.73;;;28.03;;
23802;SDS011;12082;51.786;6.018;2022-10-31T05:00:29;35.10;;;30.90;;
23802;SDS011;12082;51.786;6.018;2022-10-31T05:02:57;32.80;;;29.40;;
23802;SDS011;12082;51.786;6.018;2022-10-31T05:05:27;32.00;;;28.57;;
23802;SDS011;12082;51.786;6.018;2022-10-31T05:07:53;33.87;;;30.33;;
23802;SDS011;12082;51.786;6.018;2022-10-31T05:10:20;34.13;;;28.90;;
23802;SDS011;12082;51.786;6.018;2022-10-31T05:12:47;34.63;;;29.27;;
23802;SDS011;12082;51.786;6.018;2022-10-31T05:15:13;43.50;;;30.80;;
23802;SDS011;12082;51.786;6.018;2022-10-31T05:17:39;38.40;;;29.47;;
23802;SDS011;12082;51.786;6.018;2022-10-31T05:20:05;33.20;;;29.67;;
23802;SDS011;12082;51.786;6.018;2022-10-31T05:22:31;36.97;;;29.53;;
23802;SDS011;12082;51.786;6.018;2022-10-31T05:24:57;35.10;;;28.90;;
23802;SDS011;12082;51.786;6.018;2022-10-31T05:27:23;32.60;;;27.90;;
23802;SDS011;12082;51.786;6.018;2022-10-31T05:29:49;33.17;;;27.60;;
23802;SDS011;12082;51.786;6.018;2022-10-31T05:32:15;30.77;;;27.53;;
23802;SDS011;12082;51.786;6.018;2022-10-31T05:34:41;31.73;;;28.20;;
23802;SDS011;12082;51.786;6.018;2022-10-31T05:37:07;31.50;;;26.57;;
23802;SDS011;12082;51.786;6.018;2022-10-31T05:39:33;30.53;;;25.93;;
23802;SDS011;12082;51.786;6.018;2022-10-31T05:41:59;32.80;;;25.93;;
23802;SDS011;12082;51.786;6.018;2022-10-31T05:44:25;28.63;;;25.37;;
23802;SDS011;12082;51.786;6.018;2022-10-31T05:46:51;28.73;;;25.63;;
23802;SDS011;12082;51.786;6.018;2022-10-31T05:49:17;26.87;;;24.27;;
23802;SDS011;12082;51.786;6.018;2022-10-31T05:51:43;30.00;;;24.40;;
23802;SDS011;12082;51.786;6.018;2022-10-31T05:54:09;27.37;;;24.53;;
23802;SDS011;12082;51.786;6.018;2022-10-31T05:56:34;27.37;;;24.70;;
23802;SDS011;12082;51.786;6.018;2022-10-31T05:59:00;28.50;;;25.40;;
23802;SDS011;12082;51.786;6.018;2022-10-31T06:01:26;26.17;;;23.73;;
23802;SDS011;12082;51.786;6.018;2022-10-31T06:03:52;25.33;;;23.23;;
23802;SDS011;12082;51.786;6.018;2022-10-31T06:06:18;24.57;;;22.47;;
23802;SDS011;12082;51.786;6.018;2022-10-31T06:08:44;23.93;;;22.10;;
23802;SDS011;12082;51.786;6.018;2022-10-31T06:11:10;23.50;;;21.53;;
23802;SDS011;12082;51.786;6.018;2022-10-31T06:13:36;23.30;;;21.60;;
23802;SDS011;12082;51.786;6.018;2022-10-31T06:16:02;23.23;;;21.43;;
23802;SDS011;12082;51.786;6.018;2022-10-31T06:18:28;23.93;;;22.03;;
23802;SDS011;12082;51.786;6.018;2022-10-31T06:20:54;25.30;;;23.03;;
23802;SDS011;12082;51.786;6.018;2022-10-31T06:23:20;24.63;;;22.93;;
23802;SDS011;12082;51.786;6.018;2022-10-31T06:25:49;24.20;;;22.60;;
23802;SDS011;12082;51.786;6.018;2022-10-31T06:28:15;25.03;;;22.93;;
23802;SDS011;12082;51.786;6.018;2022-10-31T06:30:42;25.20;;;23.30;;
23802;SDS011;12082;51.786;6.018;2022-10-31T06:33:07;27.10;;;24.70;;
23802;SDS011;12082;51.786;6.018;2022-10-31T06:35:33;26.00;;;23.93;;
23802;SDS011;12082;51.786;6.018;2022-10-31T06:37:59;25.57;;;23.50;;
23802;SDS011;12082;51.786;6.018;2022-10-31T06:40:25;25.40;;;23.63;;
23802;SDS011;12082;51.786;6.018;2022-10-31T06:42:58;25.57;;;23.57;;
23802;SDS011;12082;51.786;6.018;2022-10-31T06:45:24;23.80;;;22.17;;
23802;SDS011;12082;51.786;6.018;2022-10-31T06:47:53;24.67;;;22.77;;
23802;SDS011;12082;51.786;6.018;2022-10-31T06:50:20;24.93;;;22.77;;
23802;SDS011;12082;51.786;6.018;2022-10-31T06:52:52;24.53;;;22.60;;
23802;SDS011;12082;51.786;6.018;2022-10-31T06:55:19;24.50;;;22.80;;
23802;SDS011;12082;51.786;6.018;2022-10-31T06:58:00;23.83;;;21.87;;
23802;SDS011;12082;51.786;6.018;2022-10-31T07:00:26;23.23;;;21.23;;
23802;SDS011;12082;51.786;6.018;2022-10-31T07:02:57;25.23;;;23.13;;
23802;SDS011;12082;51.786;6.018;2022-10-31T07:05:23;24.60;;;22.83;;
23802;SDS011;12082;51.786;6.018;2022-10-31T07:07:56;23.93;;;22.17;;
23802;SDS011;12082;51.786;6.018;2022-10-31T07:10:23;24.80;;;22.70;;
23802;SDS011;12082;51.786;6.018;2022-10-31T07:12:53;25.13;;;23.03;;
23802;SDS011;12082;51.786;6.018;2022-10-31T07:15:20;24.40;;;22.60;;
23802;SDS011;12082;51.786;6.018;2022-10-31T07:17:46;22.57;;;20.77;;
23802;SDS011;12082;51.786;6.018;2022-10-31T07:20:11;22.63;;;20.93;;
23802;SDS011;12082;51.786;6.018;2022-10-31T07:22:37;22.30;;;20.53;;
23802;SDS011;12082;51.786;6.018;2022-10-31T07:25:04;23.27;;;21.37;;
23802;SDS011;12082;51.786;6.018;2022-10-31T07:27:36;24.70;;;22.40;;
23802;SDS011;12082;51.786;6.018;2022-10-31T07:30:03;22.53;;;20.73;;
23802;SDS011;12082;51.786;6.018;2022-10-31T07:32:36;23.40;;;20.57;;
23802;SDS011;12082;51.786;6.018;2022-10-31T07:35:03;20.70;;;18.87;;
23802;SDS011;12082;51.786;6.018;2022-10-31T07:37:29;22.60;;;20.37;;
23802;SDS011;12082;51.786;6.018;2022-10-31T07:39:54;23.00;;;21.10;;
23802;SDS011;12082;51.786;6.018;2022-10-31T07:42:20;23.57;;;21.50;;
23802;SDS011;12082;51.786;6.018;2022-10-31T07:44:46;22.93;;;20.80;;
23802;SDS011;12082;51.786;6.018;2022-10-31T07:47:12;23.30;;;21.03;;
23802;SDS011;12082;51.786;6.018;2022-10-31T07:49:38;22.13;;;20.10;;
23802;SDS011;12082;51.786;6.018;2022-10-31T07:52:04;20.93;;;19.20;;
23802;SDS011;12082;51.786;6.018;2022-10-31T07:54:30;24.17;;;21.67;;
23802;SDS011;12082;51.786;6.018;2022-10-31T07:56:56;24.67;;;22.40;;
23802;SDS011;12082;51.786;6.018;2022-10-31T07:59:22;25.47;;;22.83;;
23802;SDS011;12082;51.786;6.018;2022-10-31T08:01:48;29.03;;;25.97;;
23802;SDS011;12082;51.786;6.018;2022-10-31T08:04:14;35.93;;;27.80;;
23802;SDS011;12082;51.786;6.018;2022-10-31T08:06:40;37.57;;;29.90;;
23802;SDS011;12082;51.786;6.018;2022-10-31T08:09:06;35.67;;;29.10;;
23802;SDS011;12082;51.786;6.018;2022-10-31T08:11:32;38.03;;;28.10;;
23802;SDS011;12082;51.786;6.018;2022-10-31T08:13:58;37.17;;;27.90;;
23802;SDS011;12082;51.786;6.018;2022-10-31T08:16:24;47.63;;;31.33;;
23802;SDS011;12082;51.786;6.018;2022-10-31T08:18:50;33.83;;;25.43;;
23802;SDS011;12082;51.786;6.018;2022-10-31T08:21:17;27.60;;;22.63;;
23802;SDS011;12082;51.786;6.018;2022-10-31T08:23:43;26.73;;;23.37;;
23802;SDS011;12082;51.786;6.018;2022-10-31T08:26:09;23.17;;;20.30;;
23802;SDS011;12082;51.786;6.018;2022-10-31T08:28:35;22.37;;;19.10;;
23802;SDS011;12082;51.786;6.018;2022-10-31T08:31:01;23.87;;;18.87;;
23802;SDS011;12082;51.786;6.018;2022-10-31T08:33:27;20.23;;;18.03;;
23802;SDS011;12082;51.786;6.018;2022-10-31T08:35:52;21.67;;;19.40;;
23802;SDS011;12082;51.786;6.018;2022-10-31T08:38:18;21.10;;;19.20;;
23802;SDS011;12082;51.786;6.018;2022-10-31T08:40:47;20.57;;;18.57;;
23802;SDS011;12082;51.786;6.018;2022-10-31T08:43:14;19.70;;;17.70;;
23802;SDS011;12082;51.786;6.018;2022-10-31T08:45:40;23.90;;;21.20;;
23802;SDS011;12082;51.786;6.018;2022-10-31T08:48:08;24.20;;;20.93;;
23802;SDS011;12082;51.786;6.018;2022-10-31T08:50:35;20.97;;;18.97;;
23802;SDS011;12082;51.786;6.018;2022-10-31T08:53:02;23.93;;;19.77;;
23802;SDS011;12082;51.786;6.018;2022-10-31T08:55:28;24.53;;;21.77;;
23802;SDS011;12082;51.786;6.018;2022-10-31T08:57:55;27.57;;;22.83;;
23802;SDS011;12082;51.786;6.018;2022-10-31T09:00:21;26.17;;;21.93;;
23802;SDS011;12082;51.786;6.018;2022-10-31T09:02:47;26.83;;;22.17;;
23802;SDS011;12082;51.786;6.018;2022-10-31T09:05:13;26.87;;;20.83;;
23802;SDS011;12082;51.786;6.018;2022-10-31T09:07:39;26.93;;;21.17;;
23802;SDS011;12082;51.786;6.018;2022-10-31T09:10:05;35.70;;;25.07;;
23802;SDS011;12082;51.786;6.018;2022-10-31T09:12:31;28.70;;;23.90;;
23802;SDS011;12082;51.786;6.018;2022-10-31T09:14:57;36.47;;;24.23;;
23802;SDS011;12082;51.786;6.018;2022-10-31T09:17:25;56.00;;;35.33;;
23802;SDS011;12082;51.786;6.018;2022-10-31T09:19:51;57.63;;;35.63;;
23802;SDS011;12082;51.786;6.018;2022-10-31T09:22:17;61.30;;;37.33;;
23802;SDS011;12082;51.786;6.018;2022-10-31T09:24:43;62.80;;;36.90;;
23802;SDS011;12082;51.786;6.018;2022-10-31T09:27:09;59.27;;;36.57;;
23802;SDS011;12082;51.786;6.018;2022-10-31T09:29:35;66.17;;;36.87;;
23802;SDS011;12082;51.786;6.018;2022-10-31T09:32:01;61.83;;;37.10;;
23802;SDS011;12082;51.786;6.018;2022-10-31T09:34:27;59.80;;;37.37;;
23802;SDS011;12082;51.786;6.018;2022-10-31T09:36:53;50.60;;;32.23;;
23802;SDS011;12082;51.786;6.018;2022-10-31T09:39:19;75.23;;;38.47;;
23802;SDS011;12082;51.786;6.018;2022-10-31T09:47:01;42.53;;;28.90;;
23802;SDS011;12082;51.786;6.018;2022-10-31T09:52:18;50.03;;;27.00;;
23802;SDS011;12082;51.786;6.018;2022-10-31T09:54:52;38.83;;;26.40;;
23802;SDS011;12082;51.786;6.018;2022-10-31T09:57:21;40.33;;;26.50;;
23802;SDS011;12082;51.786;6.018;2022-10-31T09:59:48;42.07;;;27.40;;
23802;SDS011;12082;51.786;6.018;2022-10-31T10:02:17;39.67;;;26.10;;
23802;SDS011;12082;51.786;6.018;2022-10-31T10:09:39;42.13;;;26.03;;
23802;SDS011;12082;51.786;6.018;2022-10-31T10:14:41;43.23;;;25.10;;
23802;SDS011;12082;51.786;6.018;2022-10-31T10:20:02;35.30;;;24.93;;
23802;SDS011;12082;51.786;6.018;2022-10-31T10:25:16;39.70;;;24.90;;
23802;SDS011;12082;51.786;6.018;2022-10-31T10:32:45;39.87;;;24.17;;
23802;SDS011;12082;51.786;6.018;2022-10-31T10:35:20;38.53;;;24.30;;
23802;SDS011;12082;51.786;6.018;2022-10-31T10:37:46;39.23;;;23.67;;
23802;SDS011;12082;51.786;6.018;2022-10-31T10:40:21;39.33;;;25.20;;
23802;SDS011;12082;51.786;6.018;2022-10-31T10:42:59;42.33;;;24.77;;
23802;SDS011;12082;51.786;6.018;2022-10-31T10:51:29;38.30;;;24.13;;
23802;SDS011;12082;51.786;6.018;2022-10-31T10:59:18;40.97;;;24.13;;
23802;SDS011;12082;51.786;6.018;2022-10-31T11:01:45;35.57;;;22.60;;
23802;SDS011;12082;51.786;6.018;2022-10-31T11:04:17;39.60;;;24.10;;
23802;SDS011;12082;51.786;6.018;2022-10-31T11:06:45;44.20;;;24.37;;
23802;SDS011;12082;51.786;6.018;2022-10-31T11:09:21;35.97;;;22.73;;
23802;SDS011;12082;51.786;6.018;2022-10-31T11:11:47;38.57;;;23.53;;
23802;SDS011;12082;51.786;6.018;2022-10-31T11:14:14;32.07;;;23.47;;
23802;SDS011;12082;51.786;6.018;2022-10-31T11:16:42;41.63;;;24.03;;
23802;SDS011;12082;51.786;6.018;2022-10-31T11:21:37;39.77;;;24.50;;
23802;SDS011;12082;51.786;6.018;2022-10-31T11:24:12;31.33;;;23.00;;
23802;SDS011;12082;51.786;6.018;2022-10-31T11:26:40;39.13;;;23.53;;
23802;SDS011;12082;51.786;6.018;2022-10-31T11:29:14;39.33;;;24.53;;
23802;SDS011;12082;51.786;6.018;2022-10-31T11:31:40;31.10;;;22.37;;
23802;SDS011;12082;51.786;6.018;2022-10-31T11:34:12;40.70;;;23.90;;
23802;SDS011;12082;51.786;6.018;2022-10-31T11:36:38;33.07;;;23.17;;
23802;SDS011;12082;51.786;6.018;2022-10-31T11:39:05;39.83;;;24.03;;
23802;SDS011;12082;51.786;6.018;2022-10-31T11:41:38;39.37;;;21.97;;
23802;SDS011;12082;51.786;6.018;2022-10-31T11:44:05;36.27;;;22.77;;
23802;SDS011;12082;51.786;6.018;2022-10-31T11:47:20;37.60;;;23.60;;
23802;SDS011;12082;51.786;6.018;2022-10-31T11:49:28;40.60;;;23.17;;
23802;SDS011;12082;51.786;6.018;2022-10-31T11:51:55;38.10;;;23.70;;
23802;SDS011;12082;51.786;6.018;2022-10-31T11:54:30;41.67;;;23.90;;
23802;SDS011;12082;51.786;6.018;2022-10-31T11:56:57;35.67;;;23.70;;
23802;SDS011;12082;51.786;6.018;2022-10-31T11:59:26;39.33;;;24.30;;
23802;SDS011;12082;51.786;6.018;2022-10-31T12:01:53;38.23;;;23.23;;
23802;SDS011;12082;51.786;6.018;2022-10-31T12:04:22;37.70;;;23.83;;
23802;SDS011;12082;51.786;6.018;2022-10-31T12:06:49;42.03;;;23.10;;
23802;SDS011;12082;51.786;6.018;2022-10-31T12:14:36;47.30;;;23.87;;
23802;SDS011;12082;51.786;6.018;2022-10-31T12:22:08;37.20;;;23.20;;
23802;SDS011;12082;51.786;6.018;2022-10-31T12:32:32;38.33;;;23.47;;
23802;SDS011;12082;51.786;6.018;2022-10-31T12:35:04;35.63;;;23.03;;
23802;SDS011;12082;51.786;6.018;2022-10-31T12:43:11;38.87;;;23.73;;
23802;SDS011;12082;51.786;6.018;2022-10-31T12:45:54;35.30;;;23.30;;
23802;SDS011;12082;51.786;6.018;2022-10-31T12:55:54;40.00;;;23.57;;
23802;SDS011;12082;51.786;6.018;2022-10-31T12:58:23;41.20;;;23.00;;
23802;SDS011;12082;51.786;6.018;2022-10-31T13:00:57;39.20;;;24.07;;
23802;SDS011;12082;51.786;6.018;2022-10-31T13:03:33;39.00;;;24.00;;
23802;SDS011;12082;51.786;6.018;2022-10-31T13:06:06;43.03;;;23.53;;
23802;SDS011;12082;51.786;6.018;2022-10-31T13:08:41;41.57;;;22.93;;
23802;SDS011;12082;51.786;6.018;2022-10-31T13:11:13;38.77;;;21.80;;
23802;SDS011;12082;51.786;6.018;2022-10-31T13:16:17;40.53;;;23.67;;
23802;SDS011;12082;51.786;6.018;2022-10-31T13:21:26;34.80;;;22.10;;
23802;SDS011;12082;51.786;6.018;2022-10-31T13:23:52;44.33;;;22.23;;
23802;SDS011;12082;51.786;6.018;2022-10-31T13:26:29;35.60;;;22.47;;
23802;SDS011;12082;51.786;6.018;2022-10-31T13:31:43;35.77;;;21.93;;
23802;SDS011;12082;51.786;6.018;2022-10-31T13:34:16;36.17;;;22.13;;
23802;SDS011;12082;51.786;6.018;2022-10-31T13:37:06;34.87;;;22.03;;
23802;SDS011;12082;51.786;6.018;2022-10-31T13:39:33;39.63;;;22.90;;
23802;SDS011;12082;51.786;6.018;2022-10-31T13:42:04;34.83;;;21.07;;
23802;SDS011;12082;51.786;6.018;2022-10-31T13:44:34;41.17;;;23.07;;
23802;SDS011;12082;51.786;6.018;2022-10-31T13:47:18;40.87;;;23.13;;
23802;SDS011;12082;51.786;6.018;2022-10-31T13:49:45;43.30;;;24.13;;
23802;SDS011;12082;51.786;6.018;2022-10-31T13:52:13;37.60;;;22.77;;
23802;SDS011;12082;51.786;6.018;2022-10-31T13:54:46;38.40;;;23.63;;
23802;SDS011;12082;51.786;6.018;2022-10-31T13:59:38;39.47;;;23.43;;
23802;SDS011;12082;51.786;6.018;2022-10-31T14:02:14;37.87;;;23.63;;
23802;SDS011;12082;51.786;6.018;2022-10-31T14:04:44;42.77;;;24.70;;
23802;SDS011;12082;51.786;6.018;2022-10-31T14:07:16;40.37;;;25.40;;
23802;SDS011;12082;51.786;6.018;2022-10-31T14:09:56;44.93;;;25.17;;
23802;SDS011;12082;51.786;6.018;2022-10-31T14:12:39;38.97;;;24.47;;
23802;SDS011;12082;51.786;6.018;2022-10-31T14:15:17;42.80;;;26.00;;
23802;SDS011;12082;51.786;6.018;2022-10-31T14:17:52;42.10;;;24.13;;
23802;SDS011;12082;51.786;6.018;2022-10-31T14:22:45;46.00;;;24.87;;
23802;SDS011;12082;51.786;6.018;2022-10-31T14:27:55;45.40;;;25.10;;
23802;SDS011;12082;51.786;6.018;2022-10-31T14:30:22;41.00;;;24.30;;
23802;SDS011;12082;51.786;6.018;2022-10-31T14:32:50;41.83;;;25.13;;
23802;SDS011;12082;51.786;6.018;2022-10-31T14:35:16;44.13;;;26.23;;
23802;SDS011;12082;51.786;6.018;2022-10-31T14:37:57;45.50;;;26.03;;
23802;SDS011;12082;51.786;6.018;2022-10-31T14:45:54;44.80;;;24.13;;
23802;SDS011;12082;51.786;6.018;2022-10-31T14:51:09;38.33;;;24.17;;
23802;SDS011;12082;51.786;6.018;2022-10-31T14:53:45;41.27;;;25.20;;
23802;SDS011;12082;51.786;6.018;2022-10-31T14:56:11;46.73;;;25.40;;
23802;SDS011;12082;51.786;6.018;2022-10-31T14:58:43;46.30;;;25.47;;
23802;SDS011;12082;51.786;6.018;2022-10-31T15:01:24;39.13;;;24.10;;
23802;SDS011;12082;51.786;6.018;2022-10-31T15:03:51;47.73;;;25.63;;
23802;SDS011;12082;51.786;6.018;2022-10-31T15:06:19;45.23;;;25.57;;
23802;SDS011;12082;51.786;6.018;2022-10-31T15:08:46;36.07;;;25.07;;
23802;SDS011;12082;51.786;6.018;2022-10-31T15:11:23;44.07;;;26.87;;
23802;SDS011;12082;51.786;6.018;2022-10-31T15:16:30;44.70;;;26.47;;
23802;SDS011;12082;51.786;6.018;2022-10-31T15:19:02;39.00;;;24.70;;
23802;SDS011;12082;51.786;6.018;2022-10-31T15:21:29;39.77;;;24.83;;
23802;SDS011;12082;51.786;6.018;2022-10-31T15:23:56;45.70;;;25.97;;
23802;SDS011;12082;51.786;6.018;2022-10-31T15:26:25;43.77;;;25.00;;
23802;SDS011;12082;51.786;6.018;2022-10-31T15:29:03;37.17;;;23.57;;
23802;SDS011;12082;51.786;6.018;2022-10-31T15:31:29;44.87;;;24.97;;
23802;SDS011;12082;51.786;6.018;2022-10-31T15:34:00;40.77;;;25.13;;
23802;SDS011;12082;51.786;6.018;2022-10-31T15:36:27;40.43;;;25.53;;
23802;SDS011;12082;51.786;6.018;2022-10-31T15:38:55;44.90;;;26.03;;
23802;SDS011;12082;51.786;6.018;2022-10-31T15:43:48;34.20;;;24.00;;
23802;SDS011;12082;51.786;6.018;2022-10-31T15:46:14;40.63;;;24.63;;
23802;SDS011;12082;51.786;6.018;2022-10-31T15:48:43;34.10;;;23.40;;
23802;SDS011;12082;51.786;6.018;2022-10-31T15:51:10;44.70;;;25.57;;
23802;SDS011;12082;51.786;6.018;2022-10-31T15:53:37;41.30;;;25.77;;
23802;SDS011;12082;51.786;6.018;2022-10-31T15:56:05;40.83;;;24.10;;
23802;SDS011;12082;51.786;6.018;2022-10-31T15:58:39;42.20;;;24.17;;
23802;SDS011;12082;51.786;6.018;2022-10-31T16:01:24;49.93;;;27.13;;
23802;SDS011;12082;51.786;6.018;2022-10-31T16:06:35;42.67;;;24.40;;
23802;SDS011;12082;51.786;6.018;2022-10-31T16:09:02;43.87;;;24.90;;
23802;SDS011;12082;51.786;6.018;2022-10-31T16:11:38;42.30;;;24.27;;
23802;SDS011;12082;51.786;6.018;2022-10-31T16:16:44;36.73;;;23.77;;
23802;SDS011;12082;51.786;6.018;2022-10-31T16:19:15;40.87;;;24.90;;
23802;SDS011;12082;51.786;6.018;2022-10-31T16:21:42;39.37;;;24.53;;
23802;SDS011;12082;51.786;6.018;2022-10-31T16:24:16;41.33;;;23.93;;
23802;SDS011;12082;51.786;6.018;2022-10-31T16:26:46;41.57;;;24.07;;
23802;SDS011;12082;51.786;6.018;2022-10-31T16:31:57;47.27;;;24.50;;
23802;SDS011;12082;51.786;6.018;2022-10-31T16:34:23;40.87;;;23.47;;
23802;SDS011;12082;51.786;6.018;2022-10-31T16:36:49;45.63;;;24.97;;
23802;SDS011;12082;51.786;6.018;2022-10-31T16:39:16;45.63;;;24.37;;
23802;SDS011;12082;51.786;6.018;2022-10-31T16:41:43;41.70;;;23.03;;
23802;SDS011;12082;51.786;6.018;2022-10-31T16:44:21;38.47;;;24.40;;